createdAt,value
2023-03-26T00:02:12.534Z,10.05
2023-03-26T00:04:42.910Z,13.60
2023-03-26T00:07:12.916Z,12.77
2023-03-26T00:09:41.609Z,8.65
2023-03-26T00:12:09.776Z,9.70
2023-03-26T00:14:38.743Z,13.43
2023-03-26T00:17:08.624Z,10.10
2023-03-26T00:19:39.093Z,5.93
2023-03-26T00:22:07.295Z,6.47
2023-03-26T00:24:37.571Z,12.88
2023-03-26T00:27:05.957Z,15.77
2023-03-26T00:29:35.708Z,11.38
2023-03-26T00:32:04.952Z,10.98
2023-03-26T00:34:34.610Z,8.70
2023-03-26T00:37:04.930Z,21.33
2023-03-26T00:39:35.125Z,13.57
2023-03-26T00:42:07.345Z,7.90
2023-03-26T00:44:35.825Z,9.23
2023-03-26T00:47:04.191Z,21.10
2023-03-26T00:49:32.763Z,8.07
2023-03-26T00:52:03.342Z,16.70
2023-03-26T00:54:33.377Z,10.57
2023-03-26T00:57:02.086Z,11.43
2023-03-26T00:59:30.696Z,10.02
2023-03-26T01:02:00.421Z,10.82
2023-03-26T01:04:34.892Z,16.08
2023-03-26T01:07:11.503Z,8.48
2023-03-26T01:09:45.053Z,26.60
2023-03-26T01:12:18.668Z,14.93
2023-03-26T01:14:50.969Z,18.55
2023-03-26T01:17:20.052Z,17.45
2023-03-26T01:19:58.772Z,9.90
2023-03-26T01:22:28.589Z,9.52
2023-03-26T01:24:58.162Z,11.50
2023-03-26T01:27:41.180Z,10.32
2023-03-26T01:30:24.473Z,18.83
2023-03-26T01:33:02.086Z,10.55
2023-03-26T01:35:45.097Z,17.52
2023-03-26T01:38:27.888Z,14.52
2023-03-26T01:41:05.652Z,18.73
2023-03-26T01:43:44.878Z,13.75
2023-03-26T01:46:16.730Z,14.25
2023-03-26T01:48:47.675Z,12.40
2023-03-26T01:51:28.785Z,8.07
2023-03-26T01:53:59.131Z,7.63
2023-03-26T01:56:43.840Z,9.43
2023-03-26T01:59:43.862Z,20.85
2023-03-26T02:02:17.935Z,13.82
2023-03-26T02:04:55.809Z,13.60
2023-03-26T02:07:34.590Z,10.50
2023-03-26T02:10:10.440Z,10.75
2023-03-26T02:12:41.847Z,11.63
2023-03-26T02:15:12.245Z,15.27
2023-03-26T02:17:41.236Z,5.40
2023-03-26T02:20:12.371Z,9.70
2023-03-26T02:22:41.849Z,18.63
2023-03-26T02:25:11.591Z,9.63
2023-03-26T02:27:42.469Z,11.85
2023-03-26T02:30:16.667Z,15.65
2023-03-26T02:32:45.177Z,7.55
2023-03-26T02:35:14.808Z,15.73
2023-03-26T02:37:46.907Z,12.55
2023-03-26T02:40:15.268Z,15.05
2023-03-26T02:42:45.032Z,12.82
2023-03-26T02:45:13.312Z,11.65
2023-03-26T02:47:41.650Z,13.85
2023-03-26T02:50:12.006Z,17.52
2023-03-26T02:52:40.392Z,10.02
2023-03-26T02:55:09.778Z,9.02
2023-03-26T02:57:38.081Z,11.00
2023-03-26T03:00:15.342Z,13.73
2023-03-26T03:02:48.004Z,10.73
2023-03-26T03:05:18.935Z,10.70
2023-03-26T03:07:47.488Z,13.50
2023-03-26T03:10:16.318Z,8.38
2023-03-26T03:12:44.795Z,13.57
2023-03-26T03:15:15.159Z,17.55
2023-03-26T03:17:43.413Z,9.88
2023-03-26T03:20:13.613Z,10.20
2023-03-26T03:22:41.890Z,10.07
2023-03-26T03:25:14.294Z,20.67
2023-03-26T03:27:43.150Z,15.00
2023-03-26T03:30:15.314Z,6.75
2023-03-26T03:32:43.480Z,14.25
2023-03-26T03:35:11.654Z,11.18
2023-03-26T03:37:40.064Z,9.57
2023-03-26T03:40:12.023Z,13.85
2023-03-26T03:42:40.528Z,11.35
2023-03-26T03:45:10.396Z,13.98
2023-03-26T03:47:40.518Z,13.25
2023-03-26T03:50:11.926Z,17.08
2023-03-26T03:52:40.326Z,17.50
2023-03-26T03:55:10.636Z,13.68
2023-03-26T03:57:39.488Z,10.27
2023-03-26T04:00:10.487Z,10.63
2023-03-26T04:02:43.150Z,8.82
2023-03-26T04:05:12.223Z,8.98
2023-03-26T04:07:40.775Z,11.25
2023-03-26T04:10:11.068Z,10.20
2023-03-26T04:12:39.186Z,11.80
2023-03-26T04:15:08.716Z,10.30
2023-03-26T04:17:42.356Z,7.22
2023-03-26T04:20:15.719Z,12.68
2023-03-26T04:22:44.743Z,19.30
2023-03-26T04:25:15.635Z,13.90
2023-03-26T04:27:44.178Z,6.93
2023-03-26T04:30:23.866Z,8.15
2023-03-26T04:32:52.491Z,15.13
2023-03-26T04:35:22.115Z,16.50
2023-03-26T04:37:50.280Z,18.63
2023-03-26T04:40:22.400Z,8.35
2023-03-26T04:42:50.433Z,10.30
2023-03-26T04:45:22.845Z,8.30
2023-03-26T04:47:51.853Z,28.23
2023-03-26T04:50:22.445Z,28.02
2023-03-26T04:52:51.119Z,10.20
2023-03-26T04:55:27.135Z,15.85
2023-03-26T04:58:03.401Z,8.50
2023-03-26T05:00:31.636Z,13.83
2023-03-26T05:02:59.784Z,10.23
2023-03-26T05:05:30.821Z,14.05
2023-03-26T05:07:59.244Z,11.27
2023-03-26T05:10:27.527Z,12.13
2023-03-26T05:12:55.660Z,13.63
2023-03-26T05:15:24.184Z,10.35
2023-03-26T05:17:52.304Z,11.77
2023-03-26T05:20:24.141Z,8.55
2023-03-26T05:22:56.257Z,7.22
2023-03-26T05:25:24.378Z,7.63
2023-03-26T05:27:52.432Z,15.10
2023-03-26T05:30:22.764Z,4.13
2023-03-26T05:32:51.870Z,6.07
2023-03-26T05:35:22.111Z,11.18
2023-03-26T05:37:51.557Z,6.68
2023-03-26T05:40:21.778Z,1.50
2023-03-26T05:42:51.262Z,3.95
2023-03-26T05:45:19.754Z,4.90
2023-03-26T05:47:49.710Z,5.75
2023-03-26T05:50:17.937Z,8.35
2023-03-26T05:52:46.217Z,5.25
2023-03-26T05:55:14.411Z,5.80
2023-03-26T05:57:43.809Z,5.07
2023-03-26T06:00:15.552Z,2.70
2023-03-26T06:02:44.150Z,11.15
2023-03-26T06:05:12.458Z,6.55
2023-03-26T06:07:40.572Z,4.32
2023-03-26T06:10:10.737Z,2.13
2023-03-26T06:12:47.668Z,7.18
2023-03-26T06:15:15.993Z,9.35
2023-03-26T06:17:44.054Z,6.63
2023-03-26T06:20:14.115Z,6.72
2023-03-26T06:22:42.311Z,11.02
2023-03-26T06:25:11.022Z,6.78
2023-03-26T06:27:39.068Z,24.38
2023-03-26T06:30:10.533Z,4.40
2023-03-26T06:32:38.583Z,3.97
2023-03-26T06:35:07.672Z,7.43
2023-03-26T06:37:36.182Z,4.90
2023-03-26T06:40:05.066Z,5.53
2023-03-26T06:43:09.054Z,3.90
2023-03-26T06:45:22.806Z,6.78
2023-03-26T06:47:50.885Z,12.02
2023-03-26T06:50:19.284Z,9.23
2023-03-26T06:52:47.536Z,6.20
2023-03-26T06:55:15.810Z,5.80
2023-03-26T06:57:45.212Z,2.33
2023-03-26T07:00:17.117Z,1.55
2023-03-26T07:02:46.974Z,7.30
2023-03-26T07:05:15.799Z,2.17
2023-03-26T07:07:46.230Z,3.08
2023-03-26T07:10:15.567Z,6.18
2023-03-26T07:12:43.962Z,2.72
2023-03-26T07:15:12.770Z,2.47
2023-03-26T07:17:40.964Z,2.35
2023-03-26T07:20:12.656Z,8.85
2023-03-26T07:22:41.895Z,8.85
2023-03-26T07:25:12.691Z,4.70
2023-03-26T07:27:58.017Z,4.10
2023-03-26T07:30:39.240Z,5.25
2023-03-26T07:33:15.354Z,3.08
2023-03-26T07:35:57.856Z,4.60
2023-03-26T07:38:43.273Z,3.97
2023-03-26T07:41:23.871Z,3.83
2023-03-26T07:44:35.279Z,5.93
2023-03-26T07:47:19.752Z,8.77
2023-03-26T07:49:48.487Z,4.15
2023-03-26T07:52:18.742Z,7.65
2023-03-26T07:54:47.522Z,5.18
2023-03-26T07:57:28.866Z,3.90
2023-03-26T08:00:08.346Z,7.05
2023-03-26T08:03:12.050Z,3.25
2023-03-26T08:05:51.461Z,7.40
2023-03-26T08:08:32.486Z,6.93
2023-03-26T08:11:26.752Z,4.10
2023-03-26T08:14:16.524Z,1.75
2023-03-26T08:16:55.814Z,1.67
2023-03-26T08:19:43.347Z,4.40
2023-03-26T08:22:27.305Z,2.63
2023-03-26T08:25:19.175Z,6.07
2023-03-26T08:28:12.250Z,5.13
2023-03-26T08:30:41.757Z,2.70
2023-03-26T08:33:18.061Z,1.38
2023-03-26T08:35:49.268Z,1.70
2023-03-26T08:38:21.472Z,1.13
2023-03-26T08:41:50.949Z,2.03
2023-03-26T08:45:28.976Z,1.80
2023-03-26T08:48:40.890Z,4.10
2023-03-26T08:51:49.346Z,1.50
2023-03-26T08:55:11.911Z,1.10
2023-03-26T08:58:22.773Z,1.75
2023-03-26T09:01:34.047Z,3.80
2023-03-26T09:04:42.720Z,3.25
2023-03-26T09:11:23.093Z,3.00
2023-03-26T09:14:44.581Z,1.85
2023-03-26T09:18:15.975Z,5.70
2023-03-26T09:21:33.060Z,1.17
2023-03-26T09:24:47.277Z,6.95
2023-03-26T09:27:38.088Z,1.05
2023-03-26T09:30:52.757Z,2.35
2023-03-26T09:33:49.589Z,1.35
2023-03-26T09:36:38.152Z,4.18
2023-03-26T09:39:23.267Z,4.55
2023-03-26T09:42:08.323Z,12.75
2023-03-26T09:45:25.207Z,1.13
2023-03-26T09:48:36.984Z,2.28
2023-03-26T09:51:40.762Z,0.95
2023-03-26T09:54:52.024Z,1.75
2023-03-26T09:57:38.899Z,1.30
2023-03-26T10:00:37.492Z,1.52
2023-03-26T10:03:34.103Z,2.65
2023-03-26T10:06:23.318Z,4.82
2023-03-26T10:09:19.939Z,4.85
2023-03-26T10:12:11.091Z,1.20
2023-03-26T10:14:52.723Z,3.03
2023-03-26T10:17:46.469Z,2.75
2023-03-26T10:20:35.037Z,4.55
2023-03-26T10:23:25.875Z,5.95
2023-03-26T10:26:19.162Z,6.88
2023-03-26T10:29:17.083Z,6.72
2023-03-26T10:31:59.916Z,3.22
2023-03-26T10:34:53.646Z,5.00
2023-03-26T10:37:46.680Z,2.78
2023-03-26T10:40:49.479Z,2.28
2023-03-26T10:44:22.875Z,4.20
2023-03-26T10:47:34.249Z,1.05
2023-03-26T10:50:30.055Z,3.97
2023-03-26T10:53:08.043Z,3.78
2023-03-26T10:55:41.738Z,8.10
2023-03-26T10:58:28.590Z,6.80
2023-03-26T11:01:05.604Z,8.95
2023-03-26T11:03:58.113Z,6.55
2023-03-26T11:06:47.541Z,3.83
2023-03-26T11:09:34.527Z,1.77
2023-03-26T11:12:27.005Z,2.65
2023-03-26T11:15:19.649Z,8.32
2023-03-26T11:18:04.871Z,3.58
2023-03-26T11:20:43.051Z,8.00
2023-03-26T11:23:34.186Z,4.57
2023-03-26T11:26:12.988Z,4.40
2023-03-26T11:29:31.452Z,4.35
2023-03-26T11:32:10.836Z,3.63
2023-03-26T11:34:44.588Z,3.95
2023-03-26T11:37:35.401Z,6.53
2023-03-26T11:40:25.970Z,4.72
2023-03-26T11:43:03.482Z,0.90
2023-03-26T11:45:37.407Z,6.90
2023-03-26T11:48:11.422Z,7.53
2023-03-26T11:50:48.911Z,4.20
2023-03-26T11:53:21.390Z,2.35
2023-03-26T11:56:04.324Z,3.05
2023-03-26T11:58:44.360Z,6.25
2023-03-26T12:01:17.650Z,3.80
2023-03-26T12:04:00.390Z,3.95
2023-03-26T12:06:33.148Z,4.03
2023-03-26T12:09:01.572Z,3.00
2023-03-26T12:11:35.645Z,5.13
2023-03-26T12:14:06.523Z,5.57
2023-03-26T12:16:36.233Z,3.70
2023-03-26T12:19:19.424Z,2.00
2023-03-26T12:21:51.145Z,3.92
2023-03-26T12:24:31.699Z,5.30
2023-03-26T12:27:03.859Z,7.20
2023-03-26T12:29:34.483Z,11.55
2023-03-26T12:32:14.346Z,5.85
2023-03-26T12:34:43.022Z,5.75
2023-03-26T12:37:36.983Z,8.40
2023-03-26T12:40:29.005Z,8.55
2023-03-26T12:44:50.057Z,10.38
2023-03-26T12:47:54.325Z,3.83
2023-03-26T12:48:44.451Z,5.05
2023-03-26T12:51:37.420Z,4.88
2023-03-26T12:54:28.957Z,2.95
2023-03-26T12:57:20.264Z,4.50
2023-03-26T13:00:28.686Z,6.80
2023-03-26T13:03:54.782Z,5.07
2023-03-26T13:06:58.865Z,9.50
2023-03-26T13:10:01.763Z,8.52
2023-03-26T13:12:43.977Z,5.88
2023-03-26T13:15:37.527Z,14.10
2023-03-26T13:18:34.225Z,7.05
2023-03-26T13:21:24.583Z,7.57
2023-03-26T13:24:09.348Z,5.70
2023-03-26T13:26:58.960Z,3.47
2023-03-26T13:29:39.497Z,3.08
2023-03-26T13:32:22.262Z,3.13
2023-03-26T13:35:13.208Z,7.22
2023-03-26T13:37:54.692Z,5.88
2023-03-26T13:40:37.082Z,2.08
2023-03-26T13:43:37.802Z,3.50
2023-03-26T13:46:21.339Z,3.53
2023-03-26T13:48:58.522Z,1.60
2023-03-26T13:54:12.176Z,3.13
2023-03-26T13:56:48.312Z,1.73
2023-03-26T13:59:23.012Z,0.32
2023-03-26T14:01:59.635Z,7.88
2023-03-26T14:05:15.048Z,3.42
2023-03-26T14:07:49.338Z,0.45
2023-03-26T14:10:24.843Z,3.53
2023-03-26T14:13:01.542Z,8.10
2023-03-26T14:15:36.179Z,5.60
2023-03-26T14:18:28.760Z,2.22
2023-03-26T14:21:27.097Z,1.48
2023-03-26T14:24:44.620Z,3.30
2023-03-26T14:27:42.636Z,1.35
2023-03-26T14:31:13.804Z,1.48
2023-03-26T14:34:25.021Z,3.97
2023-03-26T14:37:30.710Z,5.30
2023-03-26T14:40:44.523Z,2.13
2023-03-26T14:44:20.412Z,1.60
2023-03-26T14:47:15.110Z,5.43
2023-03-26T14:50:31.491Z,1.25
2023-03-26T14:53:07.039Z,2.97
2023-03-26T14:56:13.685Z,6.10
2023-03-26T14:59:35.913Z,4.45
2023-03-26T15:02:54.322Z,3.55
2023-03-26T15:06:07.744Z,5.97
2023-03-26T15:09:28.959Z,3.60
2023-03-26T15:12:19.858Z,2.90
2023-03-26T15:15:53.901Z,3.83
2023-03-26T15:19:43.172Z,2.30
2023-03-26T15:23:13.561Z,0.65
2023-03-26T15:26:25.266Z,2.30
2023-03-26T15:29:42.296Z,10.25
2023-03-26T15:32:57.205Z,8.57
2023-03-26T15:35:57.773Z,4.13
2023-03-26T15:39:23.588Z,2.13
2023-03-26T15:41:59.484Z,2.95
2023-03-26T15:44:55.029Z,1.45
2023-03-26T15:47:54.297Z,1.65
2023-03-26T15:50:47.306Z,1.55
2023-03-26T15:53:36.633Z,0.20
2023-03-26T15:56:25.961Z,0.85
2023-03-26T15:59:06.498Z,0.65
2023-03-26T16:02:05.821Z,1.88
2023-03-26T16:04:51.756Z,0.50
2023-03-26T16:07:49.106Z,1.85
2023-03-26T16:10:29.259Z,2.63
2023-03-26T16:13:36.732Z,2.15
2023-03-26T16:16:26.256Z,0.73
2023-03-26T16:19:36.257Z,0.73
2023-03-26T16:22:09.697Z,0.28
2023-03-26T16:24:46.621Z,4.63
2023-03-26T16:27:35.356Z,1.35
2023-03-26T16:30:16.415Z,0.82
2023-03-26T16:32:49.049Z,1.67
2023-03-26T16:36:06.432Z,1.35
2023-03-26T16:39:02.514Z,0.65
2023-03-26T16:41:34.851Z,1.23
2023-03-26T16:44:17.003Z,0.43
2023-03-26T16:47:02.662Z,0.28
2023-03-26T16:50:08.917Z,2.65
2023-03-26T16:52:52.007Z,3.95
2023-03-26T16:55:36.592Z,0.68
2023-03-26T16:58:17.401Z,0.57
2023-03-26T17:04:11.613Z,2.08
2023-03-26T17:07:15.064Z,0.85
2023-03-26T17:10:03.902Z,0.38
2023-03-26T17:12:43.173Z,0.47
2023-03-26T17:15:32.078Z,2.17
2023-03-26T17:18:31.154Z,1.10
2023-03-26T17:21:14.122Z,1.55
2023-03-26T17:24:06.924Z,0.63
2023-03-26T17:26:56.387Z,0.73
2023-03-26T17:29:50.613Z,0.88
2023-03-26T17:32:23.642Z,2.55
2023-03-26T17:35:09.866Z,0.75
2023-03-26T17:37:51.979Z,3.85
2023-03-26T17:40:55.955Z,1.33
2023-03-26T17:43:47.756Z,0.75
2023-03-26T17:46:33.302Z,1.17
2023-03-26T17:49:12.224Z,0.30
2023-03-26T17:51:57.952Z,1.65
2023-03-26T17:54:35.925Z,0.30
2023-03-26T17:57:15.919Z,0.88
2023-03-26T17:59:49.395Z,2.00
2023-03-26T18:02:30.651Z,0.15
2023-03-26T18:05:00.730Z,0.10
2023-03-26T18:08:12.404Z,0.90
2023-03-26T18:11:19.016Z,0.20
2023-03-26T18:14:30.992Z,0.30
2023-03-26T18:17:03.418Z,0.55
2023-03-26T18:19:47.544Z,0.10
2023-03-26T18:22:23.178Z,1.58
2023-03-26T18:24:52.717Z,0.57
2023-03-26T18:27:24.021Z,0.50
2023-03-26T18:30:03.372Z,0.13
2023-03-26T18:32:34.071Z,0.13
2023-03-26T18:35:16.892Z,1.13
2023-03-26T18:37:46.030Z,0.40
2023-03-26T18:40:19.259Z,0.65
2023-03-26T18:42:52.472Z,0.38
2023-03-26T18:45:28.974Z,0.20
2023-03-26T18:48:03.835Z,0.10
2023-03-26T18:50:36.816Z,0.20
2023-03-26T18:53:07.463Z,0.47
2023-03-26T18:55:39.449Z,0.50
2023-03-26T18:58:25.266Z,0.20
2023-03-26T19:00:57.332Z,0.30
2023-03-26T19:03:29.514Z,0.93
2023-03-26T19:05:59.055Z,0.65
2023-03-26T19:08:27.670Z,0.45
2023-03-26T19:10:56.589Z,0.50
2023-03-26T19:13:25.024Z,0.82
2023-03-26T19:15:56.907Z,0.38
2023-03-26T19:18:29.638Z,0.88
2023-03-26T19:21:02.131Z,0.73
2023-03-26T19:23:36.080Z,0.73
2023-03-26T19:26:07.988Z,0.50
2023-03-26T19:28:40.377Z,0.77
2023-03-26T19:31:13.272Z,0.98
2023-03-26T19:33:45.077Z,0.95
2023-03-26T19:36:22.282Z,1.67
2023-03-26T19:38:54.003Z,0.57
2023-03-26T19:41:25.628Z,0.68
2023-03-26T19:43:57.979Z,0.80
2023-03-26T19:46:28.131Z,1.10
2023-03-26T19:48:58.941Z,0.50
2023-03-26T19:51:34.609Z,1.10
2023-03-26T19:54:13.899Z,0.68
2023-03-26T19:56:41.983Z,1.45
2023-03-26T19:59:10.116Z,1.30
2023-03-26T20:01:38.531Z,2.03
2023-03-26T20:04:13.834Z,1.65
2023-03-26T20:06:44.065Z,1.38
2023-03-26T20:09:13.925Z,1.92
2023-03-26T20:11:42.628Z,2.22
2023-03-26T20:14:16.678Z,1.23
2023-03-26T20:16:46.271Z,2.83
2023-03-26T20:19:16.696Z,3.63
2023-03-26T20:21:45.957Z,3.20
2023-03-26T20:24:17.144Z,3.80
2023-03-26T20:26:46.159Z,2.58
2023-03-26T20:29:15.857Z,1.90
2023-03-26T20:31:45.809Z,2.08
2023-03-26T20:34:20.452Z,5.53
2023-03-26T20:36:54.276Z,4.25
2023-03-26T20:39:23.797Z,5.15
2023-03-26T20:41:54.323Z,2.42
2023-03-26T20:44:23.010Z,4.28
2023-03-26T20:46:52.493Z,2.85
2023-03-26T20:49:22.827Z,8.77
2023-03-26T20:51:50.896Z,3.65
2023-03-26T20:54:23.114Z,8.13
2023-03-26T20:56:52.531Z,6.00
2023-03-26T20:59:26.386Z,22.55
2023-03-26T21:01:57.951Z,29.88
2023-03-26T21:04:28.292Z,20.45
2023-03-26T21:07:06.993Z,9.90
2023-03-26T21:09:40.328Z,21.20
2023-03-26T21:12:16.696Z,6.13
2023-03-26T21:14:46.708Z,17.63
2023-03-26T21:17:18.781Z,32.97
2023-03-26T21:19:50.418Z,18.65
2023-03-26T21:22:33.546Z,4.82
2023-03-26T21:25:22.769Z,6.43
2023-03-26T21:28:08.692Z,10.52
2023-03-26T21:30:37.648Z,10.80
2023-03-26T21:33:06.325Z,11.55
2023-03-26T21:35:36.980Z,10.57
2023-03-26T21:38:06.532Z,4.20
2023-03-26T21:40:35.378Z,3.45
2023-03-26T21:43:04.909Z,7.07
2023-03-26T21:45:34.190Z,3.63
2023-03-26T21:48:03.141Z,7.80
2023-03-26T21:50:32.223Z,4.88
2023-03-26T21:53:03.851Z,3.33
2023-03-26T21:55:42.856Z,4.00
2023-03-26T21:58:36.445Z,4.07
2023-03-26T22:01:29.932Z,3.05
2023-03-26T22:04:08.920Z,4.32
2023-03-26T22:06:45.697Z,3.65
2023-03-26T22:09:18.511Z,5.32
2023-03-26T22:11:48.904Z,5.88
2023-03-26T22:14:17.584Z,17.48
2023-03-26T22:16:45.686Z,12.38
2023-03-26T22:19:13.815Z,9.95
2023-03-26T22:21:41.953Z,6.05
2023-03-26T22:24:10.146Z,5.55
2023-03-26T22:26:39.745Z,5.18
2023-03-26T22:29:08.161Z,6.57
2023-03-26T22:31:38.960Z,4.82
2023-03-26T22:34:07.784Z,8.85
2023-03-26T22:36:40.299Z,4.65
2023-03-26T22:39:08.877Z,7.88
2023-03-26T22:41:37.245Z,5.55
2023-03-26T22:44:18.908Z,6.22
2023-03-26T22:46:49.445Z,9.20
2023-03-26T22:49:18.360Z,8.10
2023-03-26T22:51:47.173Z,14.30
2023-03-26T22:54:15.574Z,11.20
2023-03-26T22:56:44.101Z,13.43
2023-03-26T22:59:14.248Z,8.35
2023-03-26T23:01:44.098Z,9.48
2023-03-26T23:04:31.263Z,6.43
2023-03-26T23:07:02.893Z,9.15
2023-03-26T23:09:31.679Z,11.68
2023-03-26T23:12:03.677Z,8.55
2023-03-26T23:14:33.607Z,9.07
2023-03-26T23:17:02.222Z,16.95
2023-03-26T23:19:34.152Z,9.60
2023-03-26T23:22:02.565Z,8.90
2023-03-26T23:24:30.758Z,12.45
2023-03-26T23:27:00.278Z,12.57
2023-03-26T23:29:30.212Z,6.95
2023-03-26T23:32:02.328Z,11.73
2023-03-26T23:34:35.897Z,13.43
2023-03-26T23:37:05.696Z,7.50
2023-03-26T23:39:38.869Z,12.55
2023-03-26T23:42:07.444Z,9.75
2023-03-26T23:44:39.151Z,5.07
2023-03-26T23:47:10.248Z,7.43
2023-03-26T23:49:39.040Z,12.52
2023-03-26T23:52:07.648Z,8.38
2023-03-26T23:54:35.854Z,4.93
2023-03-26T23:57:04.768Z,5.18
2023-03-26T23:59:35.128Z,6.88
